createdAt,value
2023-03-02T00:01:37.802Z,102755.94
2023-03-02T00:07:45.293Z,102762.72
2023-03-02T00:10:11.912Z,102758.50
2023-03-02T00:12:38.495Z,102755.88
2023-03-02T00:15:05.509Z,102760.09
2023-03-02T00:17:32.026Z,102755.69
2023-03-02T00:20:09.869Z,102747.41
2023-03-02T00:22:38.044Z,102753.31
2023-03-02T00:25:05.360Z,102743.13
2023-03-02T00:27:32.056Z,102744.91
2023-03-02T00:29:58.637Z,102738.59
2023-03-02T00:32:25.679Z,102734.97
2023-03-02T00:34:52.464Z,102743.78
2023-03-02T00:37:20.648Z,102734.34
2023-03-02T00:39:47.163Z,102744.50
2023-03-02T00:42:13.666Z,102742.00
2023-03-02T00:44:40.305Z,102737.78
2023-03-02T00:47:06.852Z,102741.44
2023-03-02T00:49:33.466Z,102737.41
2023-03-02T00:51:59.963Z,102736.56
2023-03-02T00:54:26.639Z,102735.03
2023-03-02T00:56:53.172Z,102742.69
2023-03-02T00:59:28.746Z,102741.44
2023-03-02T01:01:58.342Z,102748.47
2023-03-02T01:04:31.290Z,102743.31
2023-03-02T01:06:59.628Z,102760.47
2023-03-02T01:09:27.015Z,102764.13
2023-03-02T01:11:54.273Z,102750.94
2023-03-02T01:14:21.751Z,102751.09
2023-03-02T01:16:49.846Z,102743.97
2023-03-02T01:19:17.286Z,102737.09
2023-03-02T01:21:44.251Z,102736.31
2023-03-02T01:24:11.516Z,102734.72
2023-03-02T01:26:41.282Z,102738.03
2023-03-02T01:29:08.003Z,102733.72
2023-03-02T01:31:34.549Z,102728.56
2023-03-02T01:34:01.165Z,102728.66
2023-03-02T01:36:31.199Z,102720.53
2023-03-02T01:38:57.859Z,102732.44
2023-03-02T01:41:24.606Z,102723.09
2023-03-02T01:43:51.171Z,102717.88
2023-03-02T01:46:27.045Z,102720.00
2023-03-02T01:49:01.247Z,102719.81
2023-03-02T01:51:30.604Z,102722.59
2023-03-02T01:54:03.338Z,102717.09
2023-03-02T01:56:36.123Z,102718.75
2023-03-02T01:59:07.655Z,102722.88
2023-03-02T02:01:37.921Z,102719.22
2023-03-02T02:04:04.713Z,102721.72
2023-03-02T02:07:02.347Z,102723.38
2023-03-02T02:09:33.571Z,102729.97
2023-03-02T02:12:00.254Z,102719.22
2023-03-02T02:17:32.980Z,102711.97
2023-03-02T02:20:19.583Z,102712.09
2023-03-02T02:23:25.770Z,102703.84
2023-03-02T02:25:58.335Z,102701.19
2023-03-02T02:28:33.713Z,102694.22
2023-03-02T02:31:33.622Z,102706.34
2023-03-02T02:34:08.974Z,102700.28
2023-03-02T02:36:44.598Z,102703.81
2023-03-02T02:39:19.263Z,102699.56
2023-03-02T02:41:47.523Z,102692.56
2023-03-02T02:44:17.270Z,102692.69
2023-03-02T02:46:45.013Z,102686.94
2023-03-02T02:49:29.949Z,102692.03
2023-03-02T02:51:56.811Z,102702.13
2023-03-02T02:54:23.559Z,102693.72
2023-03-02T02:56:53.046Z,102692.56
2023-03-02T02:59:26.829Z,102681.59
2023-03-02T03:01:53.344Z,102688.31
2023-03-02T03:04:28.348Z,102677.59
2023-03-02T03:06:56.298Z,102679.34
2023-03-02T03:09:23.522Z,102677.66
2023-03-02T03:11:56.699Z,102687.13
2023-03-02T03:14:29.208Z,102684.63
2023-03-02T03:16:55.777Z,102681.19
2023-03-02T03:19:24.461Z,102684.84
2023-03-02T03:21:54.609Z,102685.13
2023-03-02T03:24:21.839Z,102674.09
2023-03-02T03:26:48.532Z,102677.41
2023-03-02T03:29:17.104Z,102677.41
2023-03-02T03:31:43.922Z,102673.13
2023-03-02T03:34:11.079Z,102681.31
2023-03-02T03:36:37.858Z,102679.97
2023-03-02T03:39:06.008Z,102676.50
2023-03-02T03:41:33.147Z,102678.94
2023-03-02T03:43:59.876Z,102673.91
2023-03-02T03:46:26.332Z,102686.66
2023-03-02T03:48:52.897Z,102683.97
2023-03-02T03:51:19.655Z,102682.47
2023-03-02T03:56:43.302Z,102678.72
2023-03-02T03:59:12.364Z,102680.97
2023-03-02T04:01:51.782Z,102686.66
2023-03-02T04:04:22.842Z,102682.97
2023-03-02T04:06:49.999Z,102689.81
2023-03-02T04:09:19.370Z,102693.94
2023-03-02T04:11:48.806Z,102694.91
2023-03-02T04:14:18.417Z,102687.38
2023-03-02T04:16:44.908Z,102685.81
2023-03-02T04:19:12.371Z,102679.72
2023-03-02T04:21:42.186Z,102683.75
2023-03-02T04:24:10.025Z,102680.50
2023-03-02T04:26:37.551Z,102685.47
2023-03-02T04:29:04.338Z,102677.75
2023-03-02T04:31:31.355Z,102675.28
2023-03-02T04:33:58.760Z,102670.28
2023-03-02T04:36:25.927Z,102687.38
2023-03-02T04:38:53.036Z,102678.34
2023-03-02T04:41:19.569Z,102673.19
2023-03-02T04:43:46.010Z,102682.94
2023-03-02T04:46:19.972Z,102676.34
2023-03-02T04:48:46.560Z,102677.88
2023-03-02T04:51:24.183Z,102678.72
2023-03-02T04:54:01.166Z,102682.88
2023-03-02T04:56:27.968Z,102686.28
2023-03-02T04:58:55.741Z,102685.81
2023-03-02T05:01:22.883Z,102681.56
2023-03-02T05:03:49.514Z,102678.22
2023-03-02T05:06:16.114Z,102674.16
2023-03-02T05:08:43.755Z,102679.53
2023-03-02T05:11:15.875Z,102671.94
2023-03-02T05:13:42.311Z,102673.91
2023-03-02T05:16:08.794Z,102678.06
2023-03-02T05:18:35.266Z,102670.59
2023-03-02T05:21:01.839Z,102679.06
2023-03-02T05:23:33.505Z,102675.47
2023-03-02T05:26:00.195Z,102674.66
2023-03-02T05:28:27.634Z,102673.13
2023-03-02T05:30:54.693Z,102672.97
2023-03-02T05:33:21.861Z,102678.22
2023-03-02T05:35:48.960Z,102681.78
2023-03-02T05:38:15.638Z,102686.97
2023-03-02T05:40:45.321Z,102681.88
2023-03-02T05:43:16.760Z,102671.63
2023-03-02T05:45:43.278Z,102680.34
2023-03-02T05:48:14.750Z,102670.88
2023-03-02T05:50:41.373Z,102672.69
2023-03-02T05:53:08.196Z,102685.50
2023-03-02T05:55:37.101Z,102671.25
2023-03-02T05:58:09.084Z,102670.47
2023-03-02T06:00:36.051Z,102683.88
2023-03-02T06:03:02.550Z,102687.22
2023-03-02T06:05:29.032Z,102682.19
2023-03-02T06:07:56.119Z,102686.38
2023-03-02T06:10:23.335Z,102686.44
2023-03-02T06:12:50.205Z,102688.25
2023-03-02T06:15:16.860Z,102689.88
2023-03-02T06:17:43.447Z,102689.03
2023-03-02T06:20:11.066Z,102690.16
2023-03-02T06:22:45.288Z,102701.09
2023-03-02T06:25:18.159Z,102694.25
2023-03-02T06:27:45.494Z,102696.13
2023-03-02T06:30:15.480Z,102699.78
2023-03-02T06:32:42.767Z,102705.72
2023-03-02T06:35:10.574Z,102704.94
2023-03-02T06:37:37.208Z,102699.94
2023-03-02T06:40:11.079Z,102712.53
2023-03-02T06:42:38.588Z,102710.91
2023-03-02T06:45:06.738Z,102709.78
2023-03-02T06:47:33.871Z,102709.91
2023-03-02T06:50:01.043Z,102713.16
2023-03-02T06:52:27.619Z,102717.03
2023-03-02T06:54:55.038Z,102699.28
2023-03-02T06:57:21.648Z,102710.34
2023-03-02T06:59:48.099Z,102719.16
2023-03-02T07:02:14.565Z,102715.84
2023-03-02T07:04:41.059Z,102717.50
2023-03-02T07:07:07.549Z,102716.44
2023-03-02T07:09:34.502Z,102717.06
2023-03-02T07:12:01.141Z,102715.38
2023-03-02T07:14:27.671Z,102718.44
2023-03-02T07:16:56.726Z,102715.34
2023-03-02T07:19:23.328Z,102709.66
2023-03-02T07:21:49.883Z,102714.53
2023-03-02T07:24:16.365Z,102702.47
2023-03-02T07:26:42.813Z,102713.16
2023-03-02T07:29:09.268Z,102704.63
2023-03-02T07:31:35.846Z,102710.19
2023-03-02T07:34:02.256Z,102710.94
2023-03-02T07:36:28.729Z,102707.00
2023-03-02T07:38:55.205Z,102709.88
2023-03-02T07:41:22.792Z,102705.41
2023-03-02T07:43:49.329Z,102698.88
2023-03-02T07:46:16.167Z,102703.25
2023-03-02T07:48:42.762Z,102701.41
2023-03-02T07:51:09.200Z,102701.56
2023-03-02T07:53:35.663Z,102705.84
2023-03-02T07:56:07.709Z,102710.44
2023-03-02T07:58:35.328Z,102693.81
2023-03-02T08:01:01.995Z,102689.25
2023-03-02T08:03:28.608Z,102691.56
2023-03-02T08:05:55.124Z,102693.75
2023-03-02T08:08:21.672Z,102702.25
2023-03-02T08:10:48.171Z,102705.53
2023-03-02T08:13:14.636Z,102697.28
2023-03-02T08:15:41.124Z,102690.19
2023-03-02T08:18:07.699Z,102702.78
2023-03-02T08:20:34.161Z,102696.91
2023-03-02T08:23:00.616Z,102698.81
2023-03-02T08:25:27.104Z,102695.78
2023-03-02T08:27:53.650Z,102698.41
2023-03-02T08:30:20.211Z,102694.91
2023-03-02T08:32:46.898Z,102699.75
2023-03-02T08:35:13.448Z,102704.44
2023-03-02T08:37:39.895Z,102706.78
2023-03-02T08:40:07.133Z,102698.66
2023-03-02T08:42:33.563Z,102708.28
2023-03-02T08:45:00.016Z,102706.16
2023-03-02T08:47:26.637Z,102704.28
2023-03-02T08:49:53.152Z,102702.31
2023-03-02T08:52:19.709Z,102706.59
2023-03-02T08:54:46.193Z,102706.44
2023-03-02T08:57:13.068Z,102710.06
2023-03-02T08:59:39.911Z,102700.84
2023-03-02T09:02:07.014Z,102693.91
2023-03-02T09:04:34.394Z,102698.72
2023-03-02T09:07:00.850Z,102702.97
2023-03-02T09:09:27.325Z,102691.31
2023-03-02T09:11:53.808Z,102688.44
2023-03-02T09:14:20.407Z,102691.16
2023-03-02T09:16:47.323Z,102696.47
2023-03-02T09:19:14.559Z,102686.38
2023-03-02T09:21:41.105Z,102693.69
2023-03-02T09:24:07.821Z,102696.31
2023-03-02T09:26:34.968Z,102693.69
2023-03-02T09:29:01.865Z,102696.97
2023-03-02T09:31:30.205Z,102700.28
2023-03-02T09:33:57.105Z,102688.28
2023-03-02T09:36:25.341Z,102690.03
2023-03-02T09:38:51.961Z,102690.59
2023-03-02T09:41:21.455Z,102690.50
2023-03-02T09:44:09.770Z,102689.16
2023-03-02T09:46:47.880Z,102697.53
2023-03-02T09:49:28.501Z,102684.28
2023-03-02T09:52:11.747Z,102691.91
2023-03-02T09:54:38.873Z,102689.72
2023-03-02T09:57:20.842Z,102687.63
2023-03-02T09:59:59.870Z,102676.72
2023-03-02T10:02:41.486Z,102685.94
2023-03-02T10:05:16.428Z,102690.53
2023-03-02T10:07:43.219Z,102686.69
2023-03-02T10:10:24.553Z,102698.88
2023-03-02T10:13:12.230Z,102685.28
2023-03-02T10:15:48.982Z,102694.94
2023-03-02T10:18:24.950Z,102680.75
2023-03-02T10:20:56.764Z,102681.41
2023-03-02T10:23:30.392Z,102683.69
2023-03-02T10:26:20.832Z,102687.50
2023-03-02T10:28:49.930Z,102675.81
2023-03-02T10:31:28.007Z,102675.25
2023-03-02T10:33:57.826Z,102681.56
2023-03-02T10:36:38.647Z,102671.78
2023-03-02T10:39:13.047Z,102674.69
2023-03-02T10:42:03.027Z,102677.28
2023-03-02T10:44:39.390Z,102672.34
2023-03-02T10:47:07.643Z,102669.88
2023-03-02T10:49:39.346Z,102677.44
2023-03-02T10:52:13.358Z,102663.53
2023-03-02T10:54:40.764Z,102674.13
2023-03-02T10:57:35.159Z,102667.81
2023-03-02T11:00:13.487Z,102665.31
2023-03-02T11:03:04.794Z,102653.03
2023-03-02T11:05:39.857Z,102650.03
2023-03-02T11:08:16.586Z,102649.53
2023-03-02T11:11:01.227Z,102653.00
2023-03-02T11:13:29.644Z,102637.25
2023-03-02T11:16:02.201Z,102634.66
2023-03-02T11:18:37.381Z,102633.81
2023-03-02T11:21:11.574Z,102628.47
2023-03-02T11:24:13.885Z,102629.28
2023-03-02T11:26:54.909Z,102620.47
2023-03-02T11:29:46.664Z,102625.22
2023-03-02T11:32:29.029Z,102611.88
2023-03-02T11:35:09.647Z,102624.41
2023-03-02T11:37:48.119Z,102604.69
2023-03-02T11:40:52.661Z,102608.25
2023-03-02T11:43:19.379Z,102608.50
2023-03-02T11:45:52.202Z,102608.50
2023-03-02T11:48:25.861Z,102608.66
2023-03-02T11:51:04.210Z,102603.13
2023-03-02T11:53:46.830Z,102599.69
2023-03-02T11:56:13.756Z,102602.75
2023-03-02T11:58:43.488Z,102594.66
2023-03-02T12:01:20.860Z,102595.22
2023-03-02T12:03:49.514Z,102589.13
2023-03-02T12:06:22.188Z,102596.41
2023-03-02T12:08:52.535Z,102578.31
2023-03-02T12:11:18.956Z,102589.47
2023-03-02T12:13:49.331Z,102584.53
2023-03-02T12:16:36.538Z,102580.66
2023-03-02T12:19:34.282Z,102584.38
2023-03-02T12:22:07.269Z,102579.91
2023-03-02T12:24:36.229Z,102577.06
2023-03-02T12:27:25.735Z,102564.00
2023-03-02T12:30:10.780Z,102564.25
2023-03-02T12:32:38.004Z,102553.84
2023-03-02T12:35:07.409Z,102563.31
2023-03-02T12:38:06.658Z,102556.97
2023-03-02T12:40:53.539Z,102558.78
2023-03-02T12:43:26.693Z,102556.06
2023-03-02T12:46:29.003Z,102555.88
2023-03-02T12:49:35.344Z,102555.06
2023-03-02T12:52:18.055Z,102550.44
2023-03-02T12:54:44.567Z,102550.88
2023-03-02T12:57:16.724Z,102540.66
2023-03-02T12:59:50.859Z,102545.91
2023-03-02T13:02:26.365Z,102537.66
2023-03-02T13:04:56.395Z,102536.72
2023-03-02T13:07:26.600Z,102533.88
2023-03-02T13:09:56.990Z,102530.06
2023-03-02T13:12:28.808Z,102534.38
2023-03-02T13:14:58.323Z,102520.88
2023-03-02T13:17:33.177Z,102517.59
2023-03-02T13:20:03.405Z,102520.19
2023-03-02T13:22:30.252Z,102514.06
2023-03-02T13:25:01.997Z,102509.56
2023-03-02T13:27:28.631Z,102509.69
2023-03-02T13:29:56.586Z,102508.84
2023-03-02T13:32:23.069Z,102504.41
2023-03-02T13:34:55.736Z,102498.72
2023-03-02T13:37:34.567Z,102514.75
2023-03-02T13:40:04.231Z,102510.16
2023-03-02T13:42:41.127Z,102511.59
2023-03-02T13:45:31.780Z,102505.91
2023-03-02T13:48:00.229Z,102511.66
2023-03-02T13:50:32.082Z,102510.97
2023-03-02T13:53:03.999Z,102515.66
2023-03-02T13:55:30.541Z,102510.06
2023-03-02T13:57:58.173Z,102516.66
2023-03-02T14:00:32.379Z,102505.03
2023-03-02T14:02:59.082Z,102507.94
2023-03-02T14:05:33.079Z,102507.16
2023-03-02T14:08:00.399Z,102501.56
2023-03-02T14:10:27.149Z,102493.47
2023-03-02T14:13:08.517Z,102499.59
2023-03-02T14:15:40.416Z,102495.31
2023-03-02T14:18:18.394Z,102495.00
2023-03-02T14:20:44.827Z,102495.56
2023-03-02T14:23:11.337Z,102492.91
2023-03-02T14:25:37.908Z,102482.50
2023-03-02T14:28:04.631Z,102490.50
2023-03-02T14:30:31.205Z,102479.59
2023-03-02T14:32:57.688Z,102480.03
2023-03-02T14:35:25.402Z,102480.28
2023-03-02T14:37:51.897Z,102477.06
2023-03-02T14:40:27.792Z,102479.72
2023-03-02T14:42:54.506Z,102472.19
2023-03-02T14:45:21.752Z,102469.22
2023-03-02T14:47:48.924Z,102467.72
2023-03-02T14:50:16.945Z,102457.59
2023-03-02T14:52:49.449Z,102459.44
2023-03-02T14:55:25.852Z,102462.91
2023-03-02T14:57:56.084Z,102458.50
2023-03-02T15:00:23.199Z,102457.78
2023-03-02T15:02:50.334Z,102456.97
2023-03-02T15:05:17.245Z,102457.84
2023-03-02T15:07:43.735Z,102455.13
2023-03-02T15:10:21.834Z,102456.91
2023-03-02T15:12:48.362Z,102447.88
2023-03-02T15:15:14.864Z,102445.81
2023-03-02T15:17:41.736Z,102455.75
2023-03-02T15:20:13.226Z,102443.72
2023-03-02T15:22:39.799Z,102456.25
2023-03-02T15:25:06.485Z,102450.75
2023-03-02T15:27:32.982Z,102443.34
2023-03-02T15:30:02.345Z,102447.69
2023-03-02T15:32:28.912Z,102451.34
2023-03-02T15:34:55.480Z,102435.63
2023-03-02T15:37:22.113Z,102442.66
2023-03-02T15:39:53.350Z,102450.31
2023-03-02T15:42:19.939Z,102440.94
2023-03-02T15:44:46.379Z,102447.63
2023-03-02T15:47:12.838Z,102443.78
2023-03-02T15:49:39.386Z,102442.25
2023-03-02T15:52:05.861Z,102450.13
2023-03-02T15:54:32.302Z,102451.91
2023-03-02T15:56:58.803Z,102445.81
2023-03-02T15:59:28.292Z,102455.53
2023-03-02T16:01:59.327Z,102455.06
2023-03-02T16:04:27.002Z,102460.03
2023-03-02T16:06:54.839Z,102451.94
2023-03-02T16:09:21.878Z,102460.88
2023-03-02T16:11:49.118Z,102461.09
2023-03-02T16:14:15.704Z,102458.03
2023-03-02T16:16:45.518Z,102462.84
2023-03-02T16:19:14.347Z,102465.53
2023-03-02T16:21:40.858Z,102462.69
2023-03-02T16:24:08.544Z,102471.63
2023-03-02T16:26:37.850Z,102473.75
2023-03-02T16:29:08.182Z,102471.84
2023-03-02T16:31:37.808Z,102479.81
2023-03-02T16:34:09.576Z,102474.28
2023-03-02T16:36:37.571Z,102481.53
2023-03-02T16:39:04.672Z,102487.97
2023-03-02T16:41:34.565Z,102487.38
2023-03-02T16:44:01.143Z,102486.03
2023-03-02T16:46:31.320Z,102489.09
2023-03-02T16:48:58.822Z,102493.94
2023-03-02T16:51:25.809Z,102499.53
2023-03-02T16:53:52.585Z,102499.75
2023-03-02T16:56:19.196Z,102507.94
2023-03-02T16:58:45.676Z,102502.94
2023-03-02T17:01:15.337Z,102514.81
2023-03-02T17:03:42.381Z,102504.72
2023-03-02T17:06:11.033Z,102516.38
2023-03-02T17:08:38.049Z,102525.38
2023-03-02T17:11:04.763Z,102521.34
2023-03-02T17:13:31.440Z,102523.63
2023-03-02T17:15:59.048Z,102527.34
2023-03-02T17:18:27.547Z,102528.69
2023-03-02T17:20:55.935Z,102529.22
2023-03-02T17:23:23.271Z,102537.16
2023-03-02T17:25:49.811Z,102540.25
2023-03-02T17:28:16.832Z,102547.47
2023-03-02T17:30:44.412Z,102548.69
2023-03-02T17:33:11.193Z,102552.09
2023-03-02T17:35:38.088Z,102551.66
2023-03-02T17:38:04.918Z,102553.91
2023-03-02T17:40:32.085Z,102558.75
2023-03-02T17:42:58.568Z,102559.88
2023-03-02T17:45:27.651Z,102566.03
2023-03-02T17:47:54.829Z,102564.72
2023-03-02T17:50:22.801Z,102570.78
2023-03-02T17:52:49.418Z,102568.88
2023-03-02T17:55:16.351Z,102574.97
2023-03-02T17:57:42.773Z,102578.94
2023-03-02T18:00:14.024Z,102591.38
2023-03-02T18:02:40.567Z,102582.09
2023-03-02T18:05:10.027Z,102597.03
2023-03-02T18:07:37.209Z,102598.34
2023-03-02T18:10:05.157Z,102596.16
2023-03-02T18:12:31.631Z,102598.00
2023-03-02T18:14:58.035Z,102599.22
2023-03-02T18:17:24.507Z,102595.19
2023-03-02T18:19:50.972Z,102598.03
2023-03-02T18:22:17.482Z,102613.56
2023-03-02T18:24:43.924Z,102614.97
2023-03-02T18:27:10.337Z,102618.81
2023-03-02T18:29:36.754Z,102619.09
2023-03-02T18:32:03.685Z,102621.56
2023-03-02T18:34:30.262Z,102625.91
2023-03-02T18:36:56.663Z,102622.59
2023-03-02T18:39:23.119Z,102621.13
2023-03-02T18:41:49.634Z,102628.28
2023-03-02T18:44:16.280Z,102627.56
2023-03-02T18:46:44.785Z,102624.34
2023-03-02T18:49:11.317Z,102636.91
2023-03-02T18:51:37.799Z,102637.44
2023-03-02T18:54:04.240Z,102635.06
2023-03-02T18:56:30.633Z,102644.59
2023-03-02T18:58:57.090Z,102640.81
2023-03-02T19:01:23.519Z,102638.81
2023-03-02T19:03:50.148Z,102646.41
2023-03-02T19:06:20.533Z,102637.59
2023-03-02T19:08:47.986Z,102631.91
2023-03-02T19:11:14.448Z,102641.78
2023-03-02T19:13:41.031Z,102635.63
2023-03-02T19:16:07.784Z,102642.25
2023-03-02T19:18:34.507Z,102635.81
2023-03-02T19:21:01.406Z,102638.81
2023-03-02T19:23:28.035Z,102647.25
2023-03-02T19:25:54.461Z,102642.94
2023-03-02T19:28:21.834Z,102642.84
2023-03-02T19:30:49.371Z,102641.31
2023-03-02T19:33:16.621Z,102652.47
2023-03-02T19:35:44.616Z,102656.22
2023-03-02T19:38:11.062Z,102656.66
2023-03-02T19:40:37.720Z,102657.47
2023-03-02T19:43:05.195Z,102661.69
2023-03-02T19:45:34.791Z,102654.91
2023-03-02T19:48:02.344Z,102659.22
2023-03-02T19:50:29.215Z,102663.38
2023-03-02T19:52:56.557Z,102665.88
2023-03-02T19:55:24.307Z,102668.59
2023-03-02T19:57:56.566Z,102659.31
2023-03-02T20:00:24.194Z,102663.22
2023-03-02T20:02:50.771Z,102669.19
2023-03-02T20:05:17.480Z,102666.59
2023-03-02T20:07:44.457Z,102661.66
2023-03-02T20:10:13.249Z,102665.38
2023-03-02T20:12:39.648Z,102670.84
2023-03-02T20:15:06.682Z,102671.75
2023-03-02T20:17:33.953Z,102673.56
2023-03-02T20:20:01.253Z,102671.31
2023-03-02T20:22:27.877Z,102668.34
2023-03-02T20:24:54.395Z,102672.72
2023-03-02T20:27:21.223Z,102666.19
2023-03-02T20:29:47.702Z,102669.59
2023-03-02T20:32:14.254Z,102667.94
2023-03-02T20:34:43.330Z,102673.78
2023-03-02T20:37:12.382Z,102674.78
2023-03-02T20:39:40.748Z,102678.09
2023-03-02T20:42:07.746Z,102669.75
2023-03-02T20:44:34.643Z,102675.03
2023-03-02T20:47:06.120Z,102672.63
2023-03-02T20:49:32.622Z,102671.03
2023-03-02T20:51:59.761Z,102668.78
2023-03-02T20:54:33.116Z,102673.03
2023-03-02T20:56:59.683Z,102671.53
2023-03-02T20:59:27.201Z,102676.13
2023-03-02T21:01:53.786Z,102675.63
2023-03-02T21:04:20.906Z,102681.75
2023-03-02T21:06:47.924Z,102690.19
2023-03-02T21:09:14.900Z,102691.31
2023-03-02T21:11:41.351Z,102682.94
2023-03-02T21:14:08.073Z,102685.59
2023-03-02T21:16:38.504Z,102695.09
2023-03-02T21:19:08.742Z,102690.03
2023-03-02T21:21:41.786Z,102693.50
2023-03-02T21:24:10.138Z,102695.47
2023-03-02T21:26:36.879Z,102697.28
2023-03-02T21:29:05.245Z,102699.09
2023-03-02T21:31:32.273Z,102695.94
2023-03-02T21:34:00.211Z,102695.88
2023-03-02T21:36:27.174Z,102700.22
2023-03-02T21:38:54.593Z,102695.31
2023-03-02T21:41:21.988Z,102694.59
2023-03-02T21:43:49.300Z,102680.22
2023-03-02T21:46:19.692Z,102676.94
2023-03-02T21:48:46.807Z,102680.59
2023-03-02T21:51:13.766Z,102684.94
2023-03-02T21:53:40.549Z,102683.22
2023-03-02T21:56:07.913Z,102682.63
2023-03-02T21:58:34.587Z,102681.56
2023-03-02T22:01:01.454Z,102686.75
2023-03-02T22:03:27.935Z,102685.09
2023-03-02T22:05:54.437Z,102681.91
2023-03-02T22:08:21.706Z,102684.47
2023-03-02T22:10:51.692Z,102678.69
2023-03-02T22:13:31.433Z,102686.44
2023-03-02T22:16:11.469Z,102686.50
2023-03-02T22:18:38.613Z,102695.19
2023-03-02T22:21:30.685Z,102690.81
2023-03-02T22:24:09.460Z,102700.44
2023-03-02T22:26:45.785Z,102703.06
2023-03-02T22:29:25.339Z,102708.13
2023-03-02T22:31:54.187Z,102712.50
2023-03-02T22:34:27.497Z,102704.03
2023-03-02T22:37:02.923Z,102700.88
2023-03-02T22:39:33.506Z,102698.47
2023-03-02T22:42:15.108Z,102701.22
2023-03-02T22:44:42.782Z,102708.16
2023-03-02T22:47:18.634Z,102692.13
2023-03-02T22:49:46.276Z,102689.66
2023-03-02T22:52:21.808Z,102697.38
2023-03-02T22:54:48.815Z,102693.22
2023-03-02T22:57:29.919Z,102687.44
2023-03-02T23:00:11.626Z,102696.63
2023-03-02T23:02:42.390Z,102701.81
2023-03-02T23:05:26.850Z,102704.72
2023-03-02T23:08:21.038Z,102701.44
2023-03-02T23:10:49.113Z,102700.66
2023-03-02T23:13:18.566Z,102699.91
2023-03-02T23:15:47.047Z,102697.28
2023-03-02T23:18:22.228Z,102703.28
2023-03-02T23:20:50.063Z,102695.69
2023-03-02T23:23:17.396Z,102695.84
2023-03-02T23:25:44.449Z,102701.03
2023-03-02T23:28:11.084Z,102702.88
2023-03-02T23:30:37.903Z,102701.22
2023-03-02T23:33:04.686Z,102696.31
2023-03-02T23:35:31.528Z,102693.16
2023-03-02T23:37:58.623Z,102705.38
2023-03-02T23:40:25.012Z,102699.63
2023-03-02T23:42:51.442Z,102705.91
2023-03-02T23:45:17.962Z,102696.88
2023-03-02T23:47:44.996Z,102697.16
2023-03-02T23:50:13.226Z,102699.00
2023-03-02T23:52:40.967Z,102700.84
2023-03-02T23:55:08.837Z,102701.13
2023-03-02T23:57:35.282Z,102700.28
